Terminal Aerodrome Forecast
Issued by NWS

Home | Current Version | Previous Version | Text Only | Print | Product List | Glossary On
Versions: 1 2 3 4 5 6 7 8 9 10 11 12 13 14 15 16 17 18 19 20 21 22
320
FTUS43 KDLH 240446 AAA
TAFBRD
TAF AMD
KBRD 240446Z 2405/2424 16006KT P6SM VCTS OVC013CB
      TEMPO 2405/2407 VRB15G30KT 3SM +TSRA SCT006 OVC013CB
     FM240900 24005KT P6SM SCT013
      TEMPO 2409/2411 5SM BR SCT006 BKN013
     FM241500 29012G19KT P6SM SCT025=

USA.gov is the U.S. government's official web portal to all federal, state and local government web resources and services.